sensor_id;sensor_type;location;lat;lon;timestamp;P1;durP1;ratioP1;P2;durP2;ratioP2
11539;SDS011;5826;54.756;9.192;2024-01-10T00:01:19;12.00;;;8.73;;
11539;SDS011;5826;54.756;9.192;2024-01-10T00:03:45;15.60;;;10.80;;
11539;SDS011;5826;54.756;9.192;2024-01-10T00:06:11;11.80;;;9.10;;
11539;SDS011;5826;54.756;9.192;2024-01-10T00:08:37;13.20;;;10.00;;
11539;SDS011;5826;54.756;9.192;2024-01-10T00:11:02;12.33;;;9.10;;
11539;SDS011;5826;54.756;9.192;2024-01-10T00:13:29;14.07;;;9.83;;
11539;SDS011;5826;54.756;9.192;2024-01-10T00:15:56;14.77;;;10.07;;
11539;SDS011;5826;54.756;9.192;2024-01-10T00:18:23;13.53;;;10.17;;
11539;SDS011;5826;54.756;9.192;2024-01-10T00:20:49;11.67;;;8.80;;
11539;SDS011;5826;54.756;9.192;2024-01-10T00:23:15;13.10;;;9.57;;
11539;SDS011;5826;54.756;9.192;2024-01-10T00:25:40;12.70;;;9.47;;
11539;SDS011;5826;54.756;9.192;2024-01-10T00:28:06;13.47;;;9.50;;
11539;SDS011;5826;54.756;9.192;2024-01-10T00:30:31;11.60;;;8.60;;
11539;SDS011;5826;54.756;9.192;2024-01-10T00:32:57;11.90;;;9.33;;
11539;SDS011;5826;54.756;9.192;2024-01-10T00:35:22;10.80;;;8.23;;
11539;SDS011;5826;54.756;9.192;2024-01-10T00:37:48;13.47;;;9.60;;
11539;SDS011;5826;54.756;9.192;2024-01-10T00:40:13;13.37;;;9.97;;
11539;SDS011;5826;54.756;9.192;2024-01-10T00:42:39;11.30;;;8.50;;
11539;SDS011;5826;54.756;9.192;2024-01-10T00:45:05;12.40;;;8.83;;
11539;SDS011;5826;54.756;9.192;2024-01-10T00:47:30;13.13;;;9.60;;
11539;SDS011;5826;54.756;9.192;2024-01-10T00:49:56;11.40;;;8.70;;
11539;SDS011;5826;54.756;9.192;2024-01-10T00:52:21;12.57;;;9.10;;
11539;SDS011;5826;54.756;9.192;2024-01-10T00:54:47;11.73;;;8.17;;
11539;SDS011;5826;54.756;9.192;2024-01-10T00:57:12;12.93;;;9.13;;
11539;SDS011;5826;54.756;9.192;2024-01-10T00:59:38;11.93;;;9.03;;
11539;SDS011;5826;54.756;9.192;2024-01-10T01:02:04;13.13;;;9.40;;
11539;SDS011;5826;54.756;9.192;2024-01-10T01:04:29;16.97;;;10.27;;
11539;SDS011;5826;54.756;9.192;2024-01-10T01:06:55;11.50;;;8.50;;
11539;SDS011;5826;54.756;9.192;2024-01-10T01:09:20;11.90;;;9.03;;
11539;SDS011;5826;54.756;9.192;2024-01-10T01:11:46;11.53;;;8.73;;
11539;SDS011;5826;54.756;9.192;2024-01-10T01:14:11;13.20;;;9.13;;
11539;SDS011;5826;54.756;9.192;2024-01-10T01:16:37;15.47;;;10.53;;
11539;SDS011;5826;54.756;9.192;2024-01-10T01:19:02;15.70;;;10.53;;
11539;SDS011;5826;54.756;9.192;2024-01-10T01:21:27;14.23;;;9.93;;
11539;SDS011;5826;54.756;9.192;2024-01-10T01:23:54;18.27;;;11.63;;
11539;SDS011;5826;54.756;9.192;2024-01-10T01:26:19;17.47;;;11.47;;
11539;SDS011;5826;54.756;9.192;2024-01-10T01:28:45;15.40;;;11.07;;
11539;SDS011;5826;54.756;9.192;2024-01-10T01:31:10;14.67;;;10.37;;
11539;SDS011;5826;54.756;9.192;2024-01-10T01:33:36;16.70;;;11.33;;
11539;SDS011;5826;54.756;9.192;2024-01-10T01:36:01;16.63;;;11.20;;
11539;SDS011;5826;54.756;9.192;2024-01-10T01:38:27;14.40;;;10.03;;
11539;SDS011;5826;54.756;9.192;2024-01-10T01:40:52;16.77;;;11.37;;
11539;SDS011;5826;54.756;9.192;2024-01-10T01:43:19;15.80;;;11.00;;
11539;SDS011;5826;54.756;9.192;2024-01-10T01:45:46;14.10;;;9.33;;
11539;SDS011;5826;54.756;9.192;2024-01-10T01:48:13;15.70;;;10.07;;
11539;SDS011;5826;54.756;9.192;2024-01-10T01:50:39;14.53;;;10.10;;
11539;SDS011;5826;54.756;9.192;2024-01-10T01:53:05;17.53;;;11.90;;
11539;SDS011;5826;54.756;9.192;2024-01-10T01:55:31;16.30;;;11.40;;
11539;SDS011;5826;54.756;9.192;2024-01-10T01:57:56;15.77;;;10.77;;
11539;SDS011;5826;54.756;9.192;2024-01-10T02:00:22;17.47;;;10.63;;
11539;SDS011;5826;54.756;9.192;2024-01-10T02:02:47;13.53;;;8.60;;
11539;SDS011;5826;54.756;9.192;2024-01-10T02:05:14;14.17;;;9.37;;
11539;SDS011;5826;54.756;9.192;2024-01-10T02:07:40;12.43;;;8.87;;
11539;SDS011;5826;54.756;9.192;2024-01-10T02:10:06;15.73;;;10.50;;
11539;SDS011;5826;54.756;9.192;2024-01-10T02:12:32;15.00;;;10.63;;
11539;SDS011;5826;54.756;9.192;2024-01-10T02:14:57;15.17;;;10.90;;
11539;SDS011;5826;54.756;9.192;2024-01-10T02:17:23;12.13;;;8.77;;
11539;SDS011;5826;54.756;9.192;2024-01-10T02:19:49;17.00;;;11.07;;
11539;SDS011;5826;54.756;9.192;2024-01-10T02:22:14;16.13;;;11.13;;
11539;SDS011;5826;54.756;9.192;2024-01-10T02:24:40;10.73;;;8.40;;
11539;SDS011;5826;54.756;9.192;2024-01-10T02:27:06;13.30;;;10.30;;
11539;SDS011;5826;54.756;9.192;2024-01-10T02:29:33;16.70;;;11.53;;
11539;SDS011;5826;54.756;9.192;2024-01-10T02:31:59;12.00;;;8.97;;
11539;SDS011;5826;54.756;9.192;2024-01-10T02:34:24;10.23;;;7.43;;
11539;SDS011;5826;54.756;9.192;2024-01-10T02:36:50;10.83;;;7.90;;
11539;SDS011;5826;54.756;9.192;2024-01-10T02:39:15;11.33;;;8.10;;
11539;SDS011;5826;54.756;9.192;2024-01-10T02:41:41;11.80;;;8.87;;
11539;SDS011;5826;54.756;9.192;2024-01-10T02:44:06;13.20;;;10.37;;
11539;SDS011;5826;54.756;9.192;2024-01-10T02:46:32;12.13;;;8.90;;
11539;SDS011;5826;54.756;9.192;2024-01-10T02:48:57;14.13;;;9.33;;
11539;SDS011;5826;54.756;9.192;2024-01-10T02:51:23;14.60;;;10.27;;
11539;SDS011;5826;54.756;9.192;2024-01-10T02:53:51;12.50;;;9.33;;
11539;SDS011;5826;54.756;9.192;2024-01-10T02:56:16;14.60;;;9.40;;
11539;SDS011;5826;54.756;9.192;2024-01-10T02:58:42;13.43;;;9.27;;
11539;SDS011;5826;54.756;9.192;2024-01-10T03:01:07;12.30;;;9.50;;
11539;SDS011;5826;54.756;9.192;2024-01-10T03:03:34;13.63;;;9.93;;
11539;SDS011;5826;54.756;9.192;2024-01-10T03:05:59;15.23;;;10.17;;
11539;SDS011;5826;54.756;9.192;2024-01-10T03:08:25;12.03;;;8.30;;
11539;SDS011;5826;54.756;9.192;2024-01-10T03:10:50;11.97;;;9.47;;
11539;SDS011;5826;54.756;9.192;2024-01-10T03:13:16;12.60;;;8.57;;
11539;SDS011;5826;54.756;9.192;2024-01-10T03:15:41;12.40;;;8.70;;
11539;SDS011;5826;54.756;9.192;2024-01-10T03:18:07;12.80;;;9.07;;
11539;SDS011;5826;54.756;9.192;2024-01-10T03:20:32;10.43;;;7.97;;
11539;SDS011;5826;54.756;9.192;2024-01-10T03:22:57;13.40;;;9.57;;
11539;SDS011;5826;54.756;9.192;2024-01-10T03:25:23;12.10;;;8.70;;
11539;SDS011;5826;54.756;9.192;2024-01-10T03:27:48;11.63;;;8.97;;
11539;SDS011;5826;54.756;9.192;2024-01-10T03:30:14;12.20;;;8.73;;
11539;SDS011;5826;54.756;9.192;2024-01-10T03:32:39;10.03;;;7.73;;
11539;SDS011;5826;54.756;9.192;2024-01-10T03:35:05;12.33;;;9.17;;
11539;SDS011;5826;54.756;9.192;2024-01-10T03:37:31;12.63;;;9.47;;
11539;SDS011;5826;54.756;9.192;2024-01-10T03:39:56;13.53;;;9.37;;
11539;SDS011;5826;54.756;9.192;2024-01-10T03:42:24;13.23;;;9.20;;
11539;SDS011;5826;54.756;9.192;2024-01-10T03:44:49;12.03;;;8.73;;
11539;SDS011;5826;54.756;9.192;2024-01-10T03:47:15;12.47;;;9.00;;
11539;SDS011;5826;54.756;9.192;2024-01-10T03:49:40;12.53;;;9.03;;
11539;SDS011;5826;54.756;9.192;2024-01-10T03:52:06;10.63;;;7.87;;
11539;SDS011;5826;54.756;9.192;2024-01-10T03:54:31;9.93;;;7.40;;
11539;SDS011;5826;54.756;9.192;2024-01-10T03:56:57;13.13;;;8.50;;
11539;SDS011;5826;54.756;9.192;2024-01-10T03:59:22;13.87;;;9.27;;
11539;SDS011;5826;54.756;9.192;2024-01-10T04:01:48;11.23;;;7.63;;
11539;SDS011;5826;54.756;9.192;2024-01-10T04:04:13;9.70;;;7.90;;
11539;SDS011;5826;54.756;9.192;2024-01-10T04:06:39;11.30;;;8.67;;
11539;SDS011;5826;54.756;9.192;2024-01-10T04:09:04;11.03;;;8.23;;
11539;SDS011;5826;54.756;9.192;2024-01-10T04:11:33;11.67;;;8.53;;
11539;SDS011;5826;54.756;9.192;2024-01-10T04:13:58;11.27;;;8.10;;
11539;SDS011;5826;54.756;9.192;2024-01-10T04:16:24;11.10;;;8.23;;
11539;SDS011;5826;54.756;9.192;2024-01-10T04:18:50;9.33;;;6.87;;
11539;SDS011;5826;54.756;9.192;2024-01-10T04:21:16;11.73;;;8.57;;
11539;SDS011;5826;54.756;9.192;2024-01-10T04:23:41;12.03;;;8.60;;
11539;SDS011;5826;54.756;9.192;2024-01-10T04:26:07;12.30;;;9.07;;
11539;SDS011;5826;54.756;9.192;2024-01-10T04:28:32;13.33;;;8.43;;
11539;SDS011;5826;54.756;9.192;2024-01-10T04:30:58;11.77;;;8.80;;
11539;SDS011;5826;54.756;9.192;2024-01-10T04:33:23;10.10;;;7.00;;
11539;SDS011;5826;54.756;9.192;2024-01-10T04:35:49;9.50;;;6.90;;
11539;SDS011;5826;54.756;9.192;2024-01-10T04:38:14;10.93;;;7.90;;
11539;SDS011;5826;54.756;9.192;2024-01-10T04:40:40;9.90;;;7.50;;
11539;SDS011;5826;54.756;9.192;2024-01-10T04:43:06;11.97;;;8.80;;
11539;SDS011;5826;54.756;9.192;2024-01-10T04:45:31;12.87;;;8.40;;
11539;SDS011;5826;54.756;9.192;2024-01-10T04:47:57;9.57;;;7.07;;
11539;SDS011;5826;54.756;9.192;2024-01-10T04:50:22;10.07;;;7.00;;
11539;SDS011;5826;54.756;9.192;2024-01-10T04:52:48;7.20;;;5.93;;
11539;SDS011;5826;54.756;9.192;2024-01-10T04:55:13;10.87;;;7.33;;
11539;SDS011;5826;54.756;9.192;2024-01-10T04:57:39;8.97;;;6.53;;
11539;SDS011;5826;54.756;9.192;2024-01-10T05:00:04;11.73;;;7.97;;
11539;SDS011;5826;54.756;9.192;2024-01-10T05:02:31;9.73;;;7.27;;
11539;SDS011;5826;54.756;9.192;2024-01-10T05:04:57;9.13;;;6.13;;
11539;SDS011;5826;54.756;9.192;2024-01-10T05:07:23;9.17;;;6.53;;
11539;SDS011;5826;54.756;9.192;2024-01-10T05:09:49;7.40;;;5.57;;
11539;SDS011;5826;54.756;9.192;2024-01-10T05:12:14;9.90;;;7.43;;
11539;SDS011;5826;54.756;9.192;2024-01-10T05:14:39;11.20;;;6.87;;
11539;SDS011;5826;54.756;9.192;2024-01-10T05:17:05;9.40;;;7.17;;
11539;SDS011;5826;54.756;9.192;2024-01-10T05:19:31;11.40;;;7.07;;
11539;SDS011;5826;54.756;9.192;2024-01-10T05:21:57;7.87;;;6.23;;
11539;SDS011;5826;54.756;9.192;2024-01-10T05:24:23;10.70;;;7.87;;
11539;SDS011;5826;54.756;9.192;2024-01-10T05:26:49;7.90;;;6.20;;
11539;SDS011;5826;54.756;9.192;2024-01-10T05:29:16;8.20;;;6.10;;
11539;SDS011;5826;54.756;9.192;2024-01-10T05:31:43;9.67;;;6.00;;
11539;SDS011;5826;54.756;9.192;2024-01-10T05:34:09;9.30;;;6.47;;
11539;SDS011;5826;54.756;9.192;2024-01-10T05:36:34;8.17;;;5.67;;
11539;SDS011;5826;54.756;9.192;2024-01-10T05:39:00;8.80;;;6.30;;
11539;SDS011;5826;54.756;9.192;2024-01-10T05:41:25;9.00;;;5.80;;
11539;SDS011;5826;54.756;9.192;2024-01-10T05:43:51;9.17;;;6.03;;
11539;SDS011;5826;54.756;9.192;2024-01-10T05:46:16;8.30;;;6.27;;
11539;SDS011;5826;54.756;9.192;2024-01-10T05:48:42;7.47;;;5.53;;
11539;SDS011;5826;54.756;9.192;2024-01-10T05:51:07;8.10;;;5.67;;
11539;SDS011;5826;54.756;9.192;2024-01-10T05:53:33;7.90;;;5.87;;
11539;SDS011;5826;54.756;9.192;2024-01-10T05:55:58;9.13;;;6.23;;
11539;SDS011;5826;54.756;9.192;2024-01-10T05:58:24;7.73;;;5.70;;
11539;SDS011;5826;54.756;9.192;2024-01-10T06:00:49;9.97;;;6.37;;
11539;SDS011;5826;54.756;9.192;2024-01-10T06:03:15;8.63;;;6.30;;
11539;SDS011;5826;54.756;9.192;2024-01-10T06:05:40;8.03;;;5.80;;
11539;SDS011;5826;54.756;9.192;2024-01-10T06:08:06;8.83;;;6.27;;
11539;SDS011;5826;54.756;9.192;2024-01-10T06:10:31;8.80;;;5.63;;
11539;SDS011;5826;54.756;9.192;2024-01-10T06:12:57;9.77;;;6.80;;
11539;SDS011;5826;54.756;9.192;2024-01-10T06:15:22;8.73;;;6.13;;
11539;SDS011;5826;54.756;9.192;2024-01-10T06:17:48;10.23;;;6.93;;
11539;SDS011;5826;54.756;9.192;2024-01-10T06:20:14;9.27;;;6.37;;
11539;SDS011;5826;54.756;9.192;2024-01-10T06:22:40;8.73;;;6.57;;
11539;SDS011;5826;54.756;9.192;2024-01-10T06:25:06;8.80;;;6.43;;
11539;SDS011;5826;54.756;9.192;2024-01-10T06:27:32;8.07;;;6.13;;
11539;SDS011;5826;54.756;9.192;2024-01-10T06:29:57;11.30;;;7.00;;
11539;SDS011;5826;54.756;9.192;2024-01-10T06:32:23;8.83;;;6.63;;
11539;SDS011;5826;54.756;9.192;2024-01-10T06:34:48;9.77;;;6.50;;
11539;SDS011;5826;54.756;9.192;2024-01-10T06:37:14;9.33;;;6.90;;
11539;SDS011;5826;54.756;9.192;2024-01-10T06:39:41;9.40;;;6.53;;
11539;SDS011;5826;54.756;9.192;2024-01-10T06:42:06;9.67;;;6.83;;
11539;SDS011;5826;54.756;9.192;2024-01-10T06:44:33;8.90;;;6.73;;
11539;SDS011;5826;54.756;9.192;2024-01-10T06:46:58;8.47;;;6.17;;
11539;SDS011;5826;54.756;9.192;2024-01-10T06:49:24;10.00;;;6.57;;
11539;SDS011;5826;54.756;9.192;2024-01-10T06:51:49;8.23;;;6.30;;
11539;SDS011;5826;54.756;9.192;2024-01-10T06:54:15;11.77;;;8.53;;
11539;SDS011;5826;54.756;9.192;2024-01-10T06:56:40;11.07;;;7.70;;
11539;SDS011;5826;54.756;9.192;2024-01-10T06:59:06;9.90;;;7.10;;
11539;SDS011;5826;54.756;9.192;2024-01-10T07:01:31;10.90;;;7.87;;
11539;SDS011;5826;54.756;9.192;2024-01-10T07:03:57;9.03;;;6.13;;
11539;SDS011;5826;54.756;9.192;2024-01-10T07:06:22;8.33;;;6.20;;
11539;SDS011;5826;54.756;9.192;2024-01-10T07:08:49;9.93;;;6.13;;
11539;SDS011;5826;54.756;9.192;2024-01-10T07:11:15;9.63;;;6.93;;
11539;SDS011;5826;54.756;9.192;2024-01-10T07:13:42;9.37;;;7.23;;
11539;SDS011;5826;54.756;9.192;2024-01-10T07:16:08;12.70;;;8.37;;
11539;SDS011;5826;54.756;9.192;2024-01-10T07:18:33;11.37;;;7.87;;
11539;SDS011;5826;54.756;9.192;2024-01-10T07:20:59;14.47;;;8.17;;
11539;SDS011;5826;54.756;9.192;2024-01-10T07:23:24;13.50;;;9.10;;
11539;SDS011;5826;54.756;9.192;2024-01-10T07:25:50;13.23;;;9.10;;
11539;SDS011;5826;54.756;9.192;2024-01-10T07:28:16;12.27;;;8.57;;
11539;SDS011;5826;54.756;9.192;2024-01-10T07:30:42;13.57;;;9.53;;
11539;SDS011;5826;54.756;9.192;2024-01-10T07:33:09;12.50;;;9.10;;
11539;SDS011;5826;54.756;9.192;2024-01-10T07:35:35;12.90;;;8.50;;
11539;SDS011;5826;54.756;9.192;2024-01-10T07:38:01;14.23;;;9.97;;
11539;SDS011;5826;54.756;9.192;2024-01-10T07:40:26;12.10;;;8.47;;
11539;SDS011;5826;54.756;9.192;2024-01-10T07:42:52;13.37;;;9.47;;
11539;SDS011;5826;54.756;9.192;2024-01-10T07:45:17;14.00;;;9.57;;
11539;SDS011;5826;54.756;9.192;2024-01-10T07:47:43;13.17;;;9.23;;
11539;SDS011;5826;54.756;9.192;2024-01-10T07:50:09;12.97;;;9.27;;
11539;SDS011;5826;54.756;9.192;2024-01-10T07:52:35;15.50;;;10.10;;
11539;SDS011;5826;54.756;9.192;2024-01-10T07:55:01;13.80;;;9.07;;
11539;SDS011;5826;54.756;9.192;2024-01-10T07:57:30;13.97;;;8.47;;
11539;SDS011;5826;54.756;9.192;2024-01-10T07:59:55;13.80;;;9.63;;
11539;SDS011;5826;54.756;9.192;2024-01-10T08:02:21;11.97;;;8.63;;
11539;SDS011;5826;54.756;9.192;2024-01-10T08:04:47;11.23;;;8.50;;
11539;SDS011;5826;54.756;9.192;2024-01-10T08:07:12;12.97;;;9.50;;
11539;SDS011;5826;54.756;9.192;2024-01-10T08:09:38;12.33;;;9.37;;
11539;SDS011;5826;54.756;9.192;2024-01-10T08:12:04;11.23;;;8.07;;
11539;SDS011;5826;54.756;9.192;2024-01-10T08:14:29;12.90;;;9.20;;
11539;SDS011;5826;54.756;9.192;2024-01-10T08:16:55;11.00;;;7.83;;
11539;SDS011;5826;54.756;9.192;2024-01-10T08:19:23;14.43;;;9.70;;
11539;SDS011;5826;54.756;9.192;2024-01-10T08:21:50;11.20;;;8.43;;
11539;SDS011;5826;54.756;9.192;2024-01-10T08:24:16;13.17;;;10.30;;
11539;SDS011;5826;54.756;9.192;2024-01-10T08:26:42;14.03;;;9.67;;
11539;SDS011;5826;54.756;9.192;2024-01-10T08:29:08;12.93;;;8.77;;
11539;SDS011;5826;54.756;9.192;2024-01-10T08:31:33;16.30;;;12.00;;
11539;SDS011;5826;54.756;9.192;2024-01-10T08:33:59;14.10;;;10.37;;
11539;SDS011;5826;54.756;9.192;2024-01-10T08:36:24;17.63;;;11.90;;
11539;SDS011;5826;54.756;9.192;2024-01-10T08:38:50;15.13;;;10.90;;
11539;SDS011;5826;54.756;9.192;2024-01-10T08:41:16;14.87;;;10.43;;
11539;SDS011;5826;54.756;9.192;2024-01-10T08:43:42;14.73;;;10.43;;
11539;SDS011;5826;54.756;9.192;2024-01-10T08:46:08;12.53;;;8.37;;
11539;SDS011;5826;54.756;9.192;2024-01-10T08:48:34;15.07;;;11.23;;
11539;SDS011;5826;54.756;9.192;2024-01-10T08:51:01;10.97;;;8.63;;
11539;SDS011;5826;54.756;9.192;2024-01-10T08:53:27;15.27;;;11.37;;
11539;SDS011;5826;54.756;9.192;2024-01-10T08:55:53;14.17;;;10.23;;
11539;SDS011;5826;54.756;9.192;2024-01-10T08:58:18;14.93;;;10.53;;
11539;SDS011;5826;54.756;9.192;2024-01-10T09:00:44;11.77;;;8.00;;
11539;SDS011;5826;54.756;9.192;2024-01-10T09:03:09;13.90;;;9.97;;
11539;SDS011;5826;54.756;9.192;2024-01-10T09:05:35;16.47;;;11.00;;
11539;SDS011;5826;54.756;9.192;2024-01-10T09:08:01;15.53;;;9.60;;
11539;SDS011;5826;54.756;9.192;2024-01-10T09:10:28;15.57;;;10.47;;
11539;SDS011;5826;54.756;9.192;2024-01-10T09:12:53;15.03;;;11.03;;
11539;SDS011;5826;54.756;9.192;2024-01-10T09:15:19;17.03;;;11.20;;
11539;SDS011;5826;54.756;9.192;2024-01-10T09:17:45;14.87;;;10.37;;
11539;SDS011;5826;54.756;9.192;2024-01-10T09:20:11;15.27;;;10.77;;
11539;SDS011;5826;54.756;9.192;2024-01-10T09:22:38;19.90;;;12.43;;
11539;SDS011;5826;54.756;9.192;2024-01-10T09:25:04;15.27;;;12.07;;
11539;SDS011;5826;54.756;9.192;2024-01-10T09:27:31;14.80;;;10.00;;
11539;SDS011;5826;54.756;9.192;2024-01-10T09:29:58;14.23;;;9.50;;
11539;SDS011;5826;54.756;9.192;2024-01-10T09:32:24;14.87;;;10.67;;
11539;SDS011;5826;54.756;9.192;2024-01-10T09:34:51;18.50;;;12.90;;
11539;SDS011;5826;54.756;9.192;2024-01-10T09:37:17;16.23;;;11.67;;
11539;SDS011;5826;54.756;9.192;2024-01-10T09:39:42;18.10;;;11.83;;
11539;SDS011;5826;54.756;9.192;2024-01-10T09:42:08;19.93;;;13.43;;
11539;SDS011;5826;54.756;9.192;2024-01-10T09:44:33;20.50;;;14.93;;
11539;SDS011;5826;54.756;9.192;2024-01-10T09:46:59;17.23;;;12.83;;
11539;SDS011;5826;54.756;9.192;2024-01-10T09:49:27;17.27;;;11.97;;
11539;SDS011;5826;54.756;9.192;2024-01-10T09:51:59;13.47;;;9.73;;
11539;SDS011;5826;54.756;9.192;2024-01-10T09:54:26;17.97;;;12.43;;
11539;SDS011;5826;54.756;9.192;2024-01-10T09:56:54;16.80;;;12.63;;
11539;SDS011;5826;54.756;9.192;2024-01-10T09:59:20;17.60;;;11.97;;
11539;SDS011;5826;54.756;9.192;2024-01-10T10:01:46;16.90;;;11.17;;
11539;SDS011;5826;54.756;9.192;2024-01-10T10:04:12;21.17;;;14.10;;
11539;SDS011;5826;54.756;9.192;2024-01-10T10:06:40;14.83;;;11.23;;
11539;SDS011;5826;54.756;9.192;2024-01-10T10:09:06;16.43;;;11.73;;
11539;SDS011;5826;54.756;9.192;2024-01-10T10:11:33;17.00;;;11.90;;
11539;SDS011;5826;54.756;9.192;2024-01-10T10:14:13;17.40;;;12.90;;
11539;SDS011;5826;54.756;9.192;2024-01-10T10:16:39;17.47;;;11.67;;
11539;SDS011;5826;54.756;9.192;2024-01-10T10:19:06;17.07;;;11.87;;
11539;SDS011;5826;54.756;9.192;2024-01-10T10:21:31;17.77;;;12.37;;
11539;SDS011;5826;54.756;9.192;2024-01-10T10:23:59;15.87;;;12.27;;
11539;SDS011;5826;54.756;9.192;2024-01-10T10:26:26;17.40;;;12.63;;
11539;SDS011;5826;54.756;9.192;2024-01-10T10:28:52;17.97;;;12.63;;
11539;SDS011;5826;54.756;9.192;2024-01-10T10:31:19;18.50;;;13.67;;
11539;SDS011;5826;54.756;9.192;2024-01-10T10:33:45;20.17;;;16.00;;
11539;SDS011;5826;54.756;9.192;2024-01-10T10:36:13;16.73;;;13.03;;
11539;SDS011;5826;54.756;9.192;2024-01-10T10:38:39;16.67;;;11.30;;
11539;SDS011;5826;54.756;9.192;2024-01-10T10:41:05;15.67;;;12.17;;
11539;SDS011;5826;54.756;9.192;2024-01-10T10:43:35;17.70;;;13.07;;
11539;SDS011;5826;54.756;9.192;2024-01-10T10:46:02;17.23;;;13.00;;
11539;SDS011;5826;54.756;9.192;2024-01-10T10:48:31;22.37;;;15.17;;
11539;SDS011;5826;54.756;9.192;2024-01-10T10:51:03;18.07;;;13.43;;
11539;SDS011;5826;54.756;9.192;2024-01-10T10:53:37;17.93;;;13.10;;
11539;SDS011;5826;54.756;9.192;2024-01-10T10:56:06;16.70;;;12.30;;
11539;SDS011;5826;54.756;9.192;2024-01-10T10:58:37;16.00;;;11.73;;
11539;SDS011;5826;54.756;9.192;2024-01-10T11:01:07;17.30;;;12.57;;
11539;SDS011;5826;54.756;9.192;2024-01-10T11:03:36;14.27;;;10.57;;
11539;SDS011;5826;54.756;9.192;2024-01-10T11:06:05;17.13;;;12.13;;
11539;SDS011;5826;54.756;9.192;2024-01-10T11:08:35;17.73;;;13.07;;
11539;SDS011;5826;54.756;9.192;2024-01-10T11:11:14;17.57;;;12.93;;
11539;SDS011;5826;54.756;9.192;2024-01-10T11:13:56;17.87;;;13.03;;
11539;SDS011;5826;54.756;9.192;2024-01-10T11:19:39;18.07;;;12.47;;
11539;SDS011;5826;54.756;9.192;2024-01-10T11:22:43;20.23;;;13.37;;
11539;SDS011;5826;54.756;9.192;2024-01-10T11:25:14;13.03;;;9.90;;
11539;SDS011;5826;54.756;9.192;2024-01-10T11:27:40;13.73;;;9.93;;
11539;SDS011;5826;54.756;9.192;2024-01-10T11:30:08;16.07;;;11.70;;
11539;SDS011;5826;54.756;9.192;2024-01-10T11:32:35;18.03;;;12.30;;
11539;SDS011;5826;54.756;9.192;2024-01-10T11:35:05;16.33;;;12.10;;
11539;SDS011;5826;54.756;9.192;2024-01-10T11:37:44;16.30;;;11.57;;
11539;SDS011;5826;54.756;9.192;2024-01-10T11:40:14;16.83;;;12.27;;
11539;SDS011;5826;54.756;9.192;2024-01-10T11:42:44;15.90;;;11.57;;
11539;SDS011;5826;54.756;9.192;2024-01-10T11:45:20;17.23;;;12.70;;
11539;SDS011;5826;54.756;9.192;2024-01-10T11:47:56;18.53;;;13.33;;
11539;SDS011;5826;54.756;9.192;2024-01-10T11:50:23;16.50;;;12.73;;
11539;SDS011;5826;54.756;9.192;2024-01-10T11:52:52;19.20;;;12.50;;
11539;SDS011;5826;54.756;9.192;2024-01-10T11:58:13;15.23;;;11.57;;
11539;SDS011;5826;54.756;9.192;2024-01-10T12:00:39;14.00;;;9.80;;
11539;SDS011;5826;54.756;9.192;2024-01-10T12:03:06;14.20;;;10.97;;
11539;SDS011;5826;54.756;9.192;2024-01-10T12:05:32;16.67;;;11.83;;
11539;SDS011;5826;54.756;9.192;2024-01-10T12:07:59;14.70;;;10.97;;
11539;SDS011;5826;54.756;9.192;2024-01-10T12:10:25;15.87;;;11.33;;
11539;SDS011;5826;54.756;9.192;2024-01-10T12:12:52;16.90;;;12.50;;
11539;SDS011;5826;54.756;9.192;2024-01-10T12:15:19;14.37;;;11.00;;
11539;SDS011;5826;54.756;9.192;2024-01-10T12:17:45;17.53;;;12.73;;
11539;SDS011;5826;54.756;9.192;2024-01-10T12:20:11;16.97;;;12.50;;
11539;SDS011;5826;54.756;9.192;2024-01-10T12:22:37;16.57;;;11.40;;
11539;SDS011;5826;54.756;9.192;2024-01-10T12:25:06;17.13;;;11.43;;
11539;SDS011;5826;54.756;9.192;2024-01-10T12:27:31;13.97;;;10.30;;
11539;SDS011;5826;54.756;9.192;2024-01-10T12:29:57;13.80;;;10.37;;
11539;SDS011;5826;54.756;9.192;2024-01-10T12:32:27;11.63;;;8.97;;
11539;SDS011;5826;54.756;9.192;2024-01-10T12:35:00;12.83;;;9.43;;
11539;SDS011;5826;54.756;9.192;2024-01-10T12:37:27;11.27;;;8.47;;
11539;SDS011;5826;54.756;9.192;2024-01-10T12:39:53;15.13;;;10.30;;
11539;SDS011;5826;54.756;9.192;2024-01-10T12:42:18;11.03;;;9.17;;
11539;SDS011;5826;54.756;9.192;2024-01-10T12:44:44;14.77;;;10.20;;
11539;SDS011;5826;54.756;9.192;2024-01-10T12:47:17;10.30;;;7.97;;
11539;SDS011;5826;54.756;9.192;2024-01-10T12:49:44;11.07;;;8.20;;
11539;SDS011;5826;54.756;9.192;2024-01-10T12:52:10;8.57;;;6.77;;
11539;SDS011;5826;54.756;9.192;2024-01-10T12:54:38;9.17;;;6.60;;
11539;SDS011;5826;54.756;9.192;2024-01-10T12:57:04;10.40;;;7.70;;
11539;SDS011;5826;54.756;9.192;2024-01-10T12:59:29;8.10;;;6.27;;
11539;SDS011;5826;54.756;9.192;2024-01-10T13:01:55;7.20;;;5.20;;
11539;SDS011;5826;54.756;9.192;2024-01-10T13:04:22;7.20;;;5.70;;
11539;SDS011;5826;54.756;9.192;2024-01-10T13:06:47;6.47;;;5.10;;
11539;SDS011;5826;54.756;9.192;2024-01-10T13:09:13;7.20;;;5.23;;
11539;SDS011;5826;54.756;9.192;2024-01-10T13:11:38;6.87;;;5.17;;
11539;SDS011;5826;54.756;9.192;2024-01-10T13:14:04;8.13;;;5.87;;
11539;SDS011;5826;54.756;9.192;2024-01-10T13:16:29;6.23;;;4.80;;
11539;SDS011;5826;54.756;9.192;2024-01-10T13:18:55;8.73;;;6.80;;
11539;SDS011;5826;54.756;9.192;2024-01-10T13:21:22;8.27;;;5.43;;
11539;SDS011;5826;54.756;9.192;2024-01-10T13:23:47;6.87;;;4.83;;
11539;SDS011;5826;54.756;9.192;2024-01-10T13:26:13;5.77;;;4.57;;
11539;SDS011;5826;54.756;9.192;2024-01-10T13:28:39;5.03;;;4.00;;
11539;SDS011;5826;54.756;9.192;2024-01-10T13:31:05;4.37;;;3.30;;
11539;SDS011;5826;54.756;9.192;2024-01-10T13:33:31;3.60;;;3.03;;
11539;SDS011;5826;54.756;9.192;2024-01-10T13:35:56;3.47;;;2.80;;
11539;SDS011;5826;54.756;9.192;2024-01-10T13:38:22;2.73;;;2.33;;
11539;SDS011;5826;54.756;9.192;2024-01-10T13:40:49;2.90;;;2.50;;
11539;SDS011;5826;54.756;9.192;2024-01-10T13:43:15;2.23;;;1.70;;
11539;SDS011;5826;54.756;9.192;2024-01-10T13:45:40;2.67;;;2.30;;
11539;SDS011;5826;54.756;9.192;2024-01-10T13:48:07;3.73;;;2.43;;
11539;SDS011;5826;54.756;9.192;2024-01-10T13:50:35;2.50;;;2.07;;
11539;SDS011;5826;54.756;9.192;2024-01-10T13:53:00;2.93;;;2.30;;
11539;SDS011;5826;54.756;9.192;2024-01-10T13:55:27;2.23;;;1.90;;
11539;SDS011;5826;54.756;9.192;2024-01-10T13:57:53;2.90;;;2.23;;
11539;SDS011;5826;54.756;9.192;2024-01-10T14:00:19;3.13;;;2.40;;
11539;SDS011;5826;54.756;9.192;2024-01-10T14:02:45;2.67;;;2.20;;
11539;SDS011;5826;54.756;9.192;2024-01-10T14:05:10;3.67;;;2.40;;
11539;SDS011;5826;54.756;9.192;2024-01-10T14:07:36;2.70;;;2.10;;
11539;SDS011;5826;54.756;9.192;2024-01-10T14:10:02;2.73;;;2.13;;
11539;SDS011;5826;54.756;9.192;2024-01-10T14:12:28;2.40;;;2.00;;
11539;SDS011;5826;54.756;9.192;2024-01-10T14:14:54;2.43;;;2.10;;
11539;SDS011;5826;54.756;9.192;2024-01-10T14:17:20;2.97;;;2.67;;
11539;SDS011;5826;54.756;9.192;2024-01-10T14:19:47;1.73;;;1.60;;
11539;SDS011;5826;54.756;9.192;2024-01-10T14:22:14;2.40;;;1.80;;
11539;SDS011;5826;54.756;9.192;2024-01-10T14:24:42;1.73;;;1.50;;
11539;SDS011;5826;54.756;9.192;2024-01-10T14:27:08;1.57;;;1.27;;
11539;SDS011;5826;54.756;9.192;2024-01-10T14:29:33;1.33;;;1.10;;
11539;SDS011;5826;54.756;9.192;2024-01-10T14:31:59;1.30;;;1.20;;
11539;SDS011;5826;54.756;9.192;2024-01-10T14:34:24;1.30;;;1.20;;
11539;SDS011;5826;54.756;9.192;2024-01-10T14:36:50;1.50;;;1.40;;
11539;SDS011;5826;54.756;9.192;2024-01-10T14:39:15;1.30;;;1.20;;
11539;SDS011;5826;54.756;9.192;2024-01-10T14:41:41;1.53;;;1.27;;
11539;SDS011;5826;54.756;9.192;2024-01-10T14:44:07;2.03;;;1.70;;
11539;SDS011;5826;54.756;9.192;2024-01-10T14:46:32;1.10;;;1.00;;
11539;SDS011;5826;54.756;9.192;2024-01-10T14:48:58;1.10;;;1.00;;